sensor_id;sensor_type;location;lat;lon;timestamp;P1;durP1;ratioP1;P2;durP2;ratioP2
30617;SDS011;17384;51.214;9.202;2023-06-10T00:00:17;14.98;;;11.73;;
30617;SDS011;17384;51.214;9.202;2023-06-10T00:02:42;14.95;;;11.25;;
30617;SDS011;17384;51.214;9.202;2023-06-10T00:05:08;14.75;;;12.55;;
30617;SDS011;17384;51.214;9.202;2023-06-10T00:07:34;16.67;;;13.32;;
30617;SDS011;17384;51.214;9.202;2023-06-10T00:10:04;15.27;;;12.30;;
30617;SDS011;17384;51.214;9.202;2023-06-10T00:12:31;14.25;;;11.70;;
30617;SDS011;17384;51.214;9.202;2023-06-10T00:15:02;15.63;;;12.70;;
30617;SDS011;17384;51.214;9.202;2023-06-10T00:17:48;16.63;;;13.93;;
30617;SDS011;17384;51.214;9.202;2023-06-10T00:20:13;16.00;;;14.02;;
30617;SDS011;17384;51.214;9.202;2023-06-10T00:22:39;17.25;;;14.30;;
30617;SDS011;17384;51.214;9.202;2023-06-10T00:25:06;16.08;;;12.88;;
30617;SDS011;17384;51.214;9.202;2023-06-10T00:27:32;16.05;;;13.52;;
30617;SDS011;17384;51.214;9.202;2023-06-10T00:30:03;16.52;;;13.13;;
30617;SDS011;17384;51.214;9.202;2023-06-10T00:32:32;15.35;;;13.00;;
30617;SDS011;17384;51.214;9.202;2023-06-10T00:34:57;15.73;;;12.60;;
30617;SDS011;17384;51.214;9.202;2023-06-10T00:37:23;21.45;;;13.95;;
30617;SDS011;17384;51.214;9.202;2023-06-10T00:39:48;17.40;;;13.55;;
30617;SDS011;17384;51.214;9.202;2023-06-10T00:42:14;16.75;;;13.40;;
30617;SDS011;17384;51.214;9.202;2023-06-10T00:44:39;17.55;;;13.82;;
30617;SDS011;17384;51.214;9.202;2023-06-10T00:47:05;16.55;;;12.98;;
30617;SDS011;17384;51.214;9.202;2023-06-10T00:49:31;18.27;;;14.18;;
30617;SDS011;17384;51.214;9.202;2023-06-10T00:51:57;15.38;;;13.10;;
30617;SDS011;17384;51.214;9.202;2023-06-10T00:54:23;16.80;;;13.07;;
30617;SDS011;17384;51.214;9.202;2023-06-10T00:56:50;17.60;;;14.10;;
30617;SDS011;17384;51.214;9.202;2023-06-10T00:59:17;15.43;;;12.95;;
30617;SDS011;17384;51.214;9.202;2023-06-10T01:01:43;19.65;;;14.68;;
30617;SDS011;17384;51.214;9.202;2023-06-10T01:04:12;16.95;;;13.55;;
30617;SDS011;17384;51.214;9.202;2023-06-10T01:06:45;15.55;;;13.77;;
30617;SDS011;17384;51.214;9.202;2023-06-10T01:12:10;24.25;;;15.13;;
30617;SDS011;17384;51.214;9.202;2023-06-10T01:14:41;19.15;;;14.23;;
30617;SDS011;17384;51.214;9.202;2023-06-10T01:17:10;17.92;;;15.20;;
30617;SDS011;17384;51.214;9.202;2023-06-10T01:19:36;17.80;;;14.38;;
30617;SDS011;17384;51.214;9.202;2023-06-10T01:22:03;18.88;;;13.52;;
30617;SDS011;17384;51.214;9.202;2023-06-10T01:24:28;18.33;;;13.23;;
30617;SDS011;17384;51.214;9.202;2023-06-10T01:26:58;18.15;;;12.90;;
30617;SDS011;17384;51.214;9.202;2023-06-10T01:29:28;17.67;;;13.05;;
30617;SDS011;17384;51.214;9.202;2023-06-10T01:32:12;16.10;;;12.48;;
30617;SDS011;17384;51.214;9.202;2023-06-10T01:34:42;22.02;;;14.27;;
30617;SDS011;17384;51.214;9.202;2023-06-10T01:37:09;16.48;;;13.75;;
30617;SDS011;17384;51.214;9.202;2023-06-10T01:39:38;17.73;;;13.88;;
30617;SDS011;17384;51.214;9.202;2023-06-10T01:42:04;19.85;;;14.15;;
30617;SDS011;17384;51.214;9.202;2023-06-10T01:44:31;18.83;;;14.65;;
30617;SDS011;17384;51.214;9.202;2023-06-10T01:46:57;16.70;;;13.63;;
30617;SDS011;17384;51.214;9.202;2023-06-10T01:49:22;16.92;;;13.90;;
30617;SDS011;17384;51.214;9.202;2023-06-10T01:51:49;18.75;;;14.05;;
30617;SDS011;17384;51.214;9.202;2023-06-10T01:54:14;18.30;;;13.68;;
30617;SDS011;17384;51.214;9.202;2023-06-10T01:56:40;16.95;;;13.60;;
30617;SDS011;17384;51.214;9.202;2023-06-10T01:59:05;18.75;;;13.75;;
30617;SDS011;17384;51.214;9.202;2023-06-10T02:01:31;17.13;;;13.90;;
30617;SDS011;17384;51.214;9.202;2023-06-10T02:03:56;20.77;;;15.23;;
30617;SDS011;17384;51.214;9.202;2023-06-10T02:06:22;19.00;;;14.88;;
30617;SDS011;17384;51.214;9.202;2023-06-10T02:08:47;24.65;;;15.05;;
30617;SDS011;17384;51.214;9.202;2023-06-10T02:11:13;21.67;;;15.52;;
30617;SDS011;17384;51.214;9.202;2023-06-10T02:13:39;17.30;;;13.57;;
30617;SDS011;17384;51.214;9.202;2023-06-10T02:16:04;18.45;;;14.63;;
30617;SDS011;17384;51.214;9.202;2023-06-10T02:18:31;24.00;;;16.08;;
30617;SDS011;17384;51.214;9.202;2023-06-10T02:20:56;23.25;;;14.95;;
30617;SDS011;17384;51.214;9.202;2023-06-10T02:23:22;18.85;;;14.43;;
30617;SDS011;17384;51.214;9.202;2023-06-10T02:25:47;20.83;;;14.80;;
30617;SDS011;17384;51.214;9.202;2023-06-10T02:28:13;22.73;;;15.35;;
30617;SDS011;17384;51.214;9.202;2023-06-10T02:30:39;28.63;;;15.85;;
30617;SDS011;17384;51.214;9.202;2023-06-10T02:33:06;18.45;;;14.65;;
30617;SDS011;17384;51.214;9.202;2023-06-10T02:35:35;20.23;;;14.82;;
30617;SDS011;17384;51.214;9.202;2023-06-10T02:38:01;24.80;;;15.55;;
30617;SDS011;17384;51.214;9.202;2023-06-10T02:40:27;19.00;;;14.60;;
30617;SDS011;17384;51.214;9.202;2023-06-10T02:42:52;17.92;;;13.48;;
30617;SDS011;17384;51.214;9.202;2023-06-10T02:45:18;20.73;;;14.15;;
30617;SDS011;17384;51.214;9.202;2023-06-10T02:47:43;17.00;;;13.45;;
30617;SDS011;17384;51.214;9.202;2023-06-10T02:50:09;17.70;;;14.40;;
30617;SDS011;17384;51.214;9.202;2023-06-10T02:52:34;19.17;;;13.93;;
30617;SDS011;17384;51.214;9.202;2023-06-10T02:54:59;18.08;;;14.02;;
30617;SDS011;17384;51.214;9.202;2023-06-10T02:57:25;20.35;;;14.35;;
30617;SDS011;17384;51.214;9.202;2023-06-10T02:59:50;16.77;;;13.95;;
30617;SDS011;17384;51.214;9.202;2023-06-10T03:02:18;17.67;;;13.85;;
30617;SDS011;17384;51.214;9.202;2023-06-10T03:04:43;19.45;;;14.65;;
30617;SDS011;17384;51.214;9.202;2023-06-10T03:07:10;20.52;;;14.80;;
30617;SDS011;17384;51.214;9.202;2023-06-10T03:09:36;17.95;;;14.10;;
30617;SDS011;17384;51.214;9.202;2023-06-10T03:12:02;17.80;;;14.57;;
30617;SDS011;17384;51.214;9.202;2023-06-10T03:14:27;18.42;;;13.90;;
30617;SDS011;17384;51.214;9.202;2023-06-10T03:16:53;19.30;;;14.70;;
30617;SDS011;17384;51.214;9.202;2023-06-10T03:19:19;17.30;;;14.25;;
30617;SDS011;17384;51.214;9.202;2023-06-10T03:21:49;21.02;;;14.00;;
30617;SDS011;17384;51.214;9.202;2023-06-10T03:24:19;17.80;;;14.07;;
30617;SDS011;17384;51.214;9.202;2023-06-10T03:26:45;18.75;;;14.57;;
30617;SDS011;17384;51.214;9.202;2023-06-10T03:29:11;23.90;;;15.25;;
30617;SDS011;17384;51.214;9.202;2023-06-10T03:31:36;23.75;;;14.27;;
30617;SDS011;17384;51.214;9.202;2023-06-10T03:34:03;17.60;;;13.85;;
30617;SDS011;17384;51.214;9.202;2023-06-10T03:36:29;19.67;;;13.68;;
30617;SDS011;17384;51.214;9.202;2023-06-10T03:38:55;18.05;;;14.75;;
30617;SDS011;17384;51.214;9.202;2023-06-10T03:41:22;18.52;;;14.00;;
30617;SDS011;17384;51.214;9.202;2023-06-10T03:43:47;17.38;;;12.90;;
30617;SDS011;17384;51.214;9.202;2023-06-10T03:46:13;16.20;;;13.23;;
30617;SDS011;17384;51.214;9.202;2023-06-10T03:48:39;18.77;;;14.38;;
30617;SDS011;17384;51.214;9.202;2023-06-10T03:51:04;19.27;;;13.75;;
30617;SDS011;17384;51.214;9.202;2023-06-10T03:53:30;19.73;;;13.57;;
30617;SDS011;17384;51.214;9.202;2023-06-10T03:55:55;18.27;;;14.18;;
30617;SDS011;17384;51.214;9.202;2023-06-10T03:58:22;19.13;;;14.15;;
30617;SDS011;17384;51.214;9.202;2023-06-10T04:00:48;17.92;;;13.90;;
30617;SDS011;17384;51.214;9.202;2023-06-10T04:03:14;19.38;;;14.13;;
30617;SDS011;17384;51.214;9.202;2023-06-10T04:05:40;18.27;;;13.02;;
30617;SDS011;17384;51.214;9.202;2023-06-10T04:08:07;18.70;;;14.05;;
30617;SDS011;17384;51.214;9.202;2023-06-10T04:10:33;16.70;;;12.50;;
30617;SDS011;17384;51.214;9.202;2023-06-10T04:12:58;15.60;;;12.70;;
30617;SDS011;17384;51.214;9.202;2023-06-10T04:15:24;17.88;;;14.32;;
30617;SDS011;17384;51.214;9.202;2023-06-10T04:17:50;22.35;;;13.65;;
30617;SDS011;17384;51.214;9.202;2023-06-10T04:20:16;19.08;;;13.60;;
30617;SDS011;17384;51.214;9.202;2023-06-10T04:22:41;19.92;;;14.55;;
30617;SDS011;17384;51.214;9.202;2023-06-10T04:25:08;21.33;;;13.20;;
30617;SDS011;17384;51.214;9.202;2023-06-10T04:27:34;17.30;;;12.65;;
30617;SDS011;17384;51.214;9.202;2023-06-10T04:30:00;18.70;;;13.80;;
30617;SDS011;17384;51.214;9.202;2023-06-10T04:32:25;18.30;;;12.85;;
30617;SDS011;17384;51.214;9.202;2023-06-10T04:34:51;15.80;;;13.20;;
30617;SDS011;17384;51.214;9.202;2023-06-10T04:37:17;16.98;;;13.15;;
30617;SDS011;17384;51.214;9.202;2023-06-10T04:39:43;24.98;;;13.77;;
30617;SDS011;17384;51.214;9.202;2023-06-10T04:42:08;21.27;;;13.18;;
30617;SDS011;17384;51.214;9.202;2023-06-10T04:44:34;22.20;;;12.50;;
30617;SDS011;17384;51.214;9.202;2023-06-10T04:46:59;16.90;;;13.20;;
30617;SDS011;17384;51.214;9.202;2023-06-10T04:49:25;16.33;;;12.35;;
30617;SDS011;17384;51.214;9.202;2023-06-10T04:51:50;15.10;;;11.88;;
30617;SDS011;17384;51.214;9.202;2023-06-10T04:54:16;17.98;;;13.43;;
30617;SDS011;17384;51.214;9.202;2023-06-10T04:56:42;19.17;;;12.60;;
30617;SDS011;17384;51.214;9.202;2023-06-10T04:59:07;19.38;;;12.27;;
30617;SDS011;17384;51.214;9.202;2023-06-10T05:01:33;15.57;;;11.57;;
30617;SDS011;17384;51.214;9.202;2023-06-10T05:03:58;16.27;;;11.48;;
30617;SDS011;17384;51.214;9.202;2023-06-10T05:06:23;16.48;;;11.55;;
30617;SDS011;17384;51.214;9.202;2023-06-10T05:08:49;18.55;;;12.68;;
30617;SDS011;17384;51.214;9.202;2023-06-10T05:11:14;21.38;;;12.55;;
30617;SDS011;17384;51.214;9.202;2023-06-10T05:13:41;16.65;;;11.63;;
30617;SDS011;17384;51.214;9.202;2023-06-10T05:16:07;18.55;;;11.52;;
30617;SDS011;17384;51.214;9.202;2023-06-10T05:18:34;18.80;;;11.63;;
30617;SDS011;17384;51.214;9.202;2023-06-10T05:21:00;17.42;;;11.00;;
30617;SDS011;17384;51.214;9.202;2023-06-10T05:23:26;16.92;;;11.88;;
30617;SDS011;17384;51.214;9.202;2023-06-10T05:25:52;13.40;;;10.80;;
30617;SDS011;17384;51.214;9.202;2023-06-10T05:28:17;14.43;;;10.48;;
30617;SDS011;17384;51.214;9.202;2023-06-10T05:30:43;16.15;;;10.90;;
30617;SDS011;17384;51.214;9.202;2023-06-10T05:33:08;13.57;;;10.35;;
30617;SDS011;17384;51.214;9.202;2023-06-10T05:35:34;14.23;;;9.55;;
30617;SDS011;17384;51.214;9.202;2023-06-10T05:37:59;13.70;;;10.23;;
30617;SDS011;17384;51.214;9.202;2023-06-10T05:40:25;14.90;;;8.77;;
30617;SDS011;17384;51.214;9.202;2023-06-10T05:42:50;15.15;;;8.10;;
30617;SDS011;17384;51.214;9.202;2023-06-10T05:45:18;10.05;;;7.53;;
30617;SDS011;17384;51.214;9.202;2023-06-10T05:47:44;11.07;;;6.50;;
30617;SDS011;17384;51.214;9.202;2023-06-10T05:50:09;15.77;;;7.20;;
30617;SDS011;17384;51.214;9.202;2023-06-10T05:52:35;10.80;;;6.65;;
30617;SDS011;17384;51.214;9.202;2023-06-10T05:55:04;12.32;;;6.90;;
30617;SDS011;17384;51.214;9.202;2023-06-10T05:57:30;8.77;;;6.20;;
30617;SDS011;17384;51.214;9.202;2023-06-10T05:59:55;9.75;;;6.65;;
30617;SDS011;17384;51.214;9.202;2023-06-10T06:02:20;8.57;;;5.88;;
30617;SDS011;17384;51.214;9.202;2023-06-10T06:04:46;12.63;;;6.20;;
30617;SDS011;17384;51.214;9.202;2023-06-10T06:07:11;8.73;;;5.47;;
30617;SDS011;17384;51.214;9.202;2023-06-10T06:09:37;10.38;;;6.25;;
30617;SDS011;17384;51.214;9.202;2023-06-10T06:12:02;10.38;;;6.18;;
30617;SDS011;17384;51.214;9.202;2023-06-10T06:14:30;9.68;;;6.03;;
30617;SDS011;17384;51.214;9.202;2023-06-10T06:16:57;10.52;;;6.13;;
30617;SDS011;17384;51.214;9.202;2023-06-10T06:19:23;9.18;;;6.30;;
30617;SDS011;17384;51.214;9.202;2023-06-10T06:21:49;15.52;;;6.00;;
30617;SDS011;17384;51.214;9.202;2023-06-10T06:24:15;11.00;;;5.95;;
30617;SDS011;17384;51.214;9.202;2023-06-10T06:26:41;11.95;;;6.63;;
30617;SDS011;17384;51.214;9.202;2023-06-10T06:29:06;8.38;;;5.90;;
30617;SDS011;17384;51.214;9.202;2023-06-10T06:31:32;12.57;;;5.78;;
30617;SDS011;17384;51.214;9.202;2023-06-10T06:33:57;10.02;;;5.65;;
30617;SDS011;17384;51.214;9.202;2023-06-10T06:36:23;9.45;;;6.20;;
30617;SDS011;17384;51.214;9.202;2023-06-10T06:38:48;11.82;;;5.25;;
30617;SDS011;17384;51.214;9.202;2023-06-10T06:41:13;9.43;;;5.90;;
30617;SDS011;17384;51.214;9.202;2023-06-10T06:43:39;7.68;;;5.10;;
30617;SDS011;17384;51.214;9.202;2023-06-10T06:46:05;11.35;;;5.97;;
30617;SDS011;17384;51.214;9.202;2023-06-10T06:48:40;8.48;;;6.20;;
30617;SDS011;17384;51.214;9.202;2023-06-10T06:51:06;10.82;;;5.72;;
30617;SDS011;17384;51.214;9.202;2023-06-10T06:53:35;7.15;;;5.50;;
30617;SDS011;17384;51.214;9.202;2023-06-10T06:56:12;12.05;;;6.28;;
30617;SDS011;17384;51.214;9.202;2023-06-10T06:58:48;9.10;;;5.05;;
30617;SDS011;17384;51.214;9.202;2023-06-10T07:01:14;7.93;;;5.25;;
30617;SDS011;17384;51.214;9.202;2023-06-10T07:03:44;9.52;;;5.55;;
30617;SDS011;17384;51.214;9.202;2023-06-10T07:06:13;9.45;;;5.70;;
30617;SDS011;17384;51.214;9.202;2023-06-10T07:08:51;9.50;;;6.50;;
30617;SDS011;17384;51.214;9.202;2023-06-10T07:11:16;5.88;;;4.97;;
30617;SDS011;17384;51.214;9.202;2023-06-10T07:13:43;10.43;;;5.40;;
30617;SDS011;17384;51.214;9.202;2023-06-10T07:16:12;7.63;;;5.15;;
30617;SDS011;17384;51.214;9.202;2023-06-10T07:18:38;7.93;;;5.45;;
30617;SDS011;17384;51.214;9.202;2023-06-10T07:21:03;10.43;;;4.95;;
30617;SDS011;17384;51.214;9.202;2023-06-10T07:23:29;12.15;;;5.55;;
30617;SDS011;17384;51.214;9.202;2023-06-10T07:25:55;12.48;;;5.72;;
30617;SDS011;17384;51.214;9.202;2023-06-10T07:28:20;9.75;;;4.95;;
30617;SDS011;17384;51.214;9.202;2023-06-10T07:30:46;9.68;;;5.93;;
30617;SDS011;17384;51.214;9.202;2023-06-10T07:33:12;9.85;;;4.97;;
30617;SDS011;17384;51.214;9.202;2023-06-10T07:35:41;8.60;;;4.75;;
30617;SDS011;17384;51.214;9.202;2023-06-10T07:38:08;7.50;;;4.90;;
30617;SDS011;17384;51.214;9.202;2023-06-10T07:40:33;10.52;;;5.05;;
30617;SDS011;17384;51.214;9.202;2023-06-10T07:42:59;8.13;;;4.60;;
30617;SDS011;17384;51.214;9.202;2023-06-10T07:45:25;10.63;;;5.40;;
30617;SDS011;17384;51.214;9.202;2023-06-10T07:47:50;8.40;;;5.13;;
30617;SDS011;17384;51.214;9.202;2023-06-10T07:50:16;10.57;;;4.50;;
30617;SDS011;17384;51.214;9.202;2023-06-10T07:52:42;8.85;;;5.10;;
30617;SDS011;17384;51.214;9.202;2023-06-10T07:55:14;9.82;;;5.18;;
30617;SDS011;17384;51.214;9.202;2023-06-10T07:57:39;11.38;;;4.82;;
30617;SDS011;17384;51.214;9.202;2023-06-10T08:00:06;10.07;;;5.00;;
30617;SDS011;17384;51.214;9.202;2023-06-10T08:02:31;6.15;;;4.32;;
30617;SDS011;17384;51.214;9.202;2023-06-10T08:04:57;8.65;;;4.68;;
30617;SDS011;17384;51.214;9.202;2023-06-10T08:07:22;9.30;;;4.80;;
30617;SDS011;17384;51.214;9.202;2023-06-10T08:09:48;9.68;;;4.38;;
30617;SDS011;17384;51.214;9.202;2023-06-10T08:12:14;8.27;;;4.22;;
30617;SDS011;17384;51.214;9.202;2023-06-10T08:14:40;8.20;;;4.95;;
30617;SDS011;17384;51.214;9.202;2023-06-10T08:17:11;8.38;;;4.90;;
30617;SDS011;17384;51.214;9.202;2023-06-10T08:19:37;7.22;;;4.30;;
30617;SDS011;17384;51.214;9.202;2023-06-10T08:22:03;11.45;;;4.78;;
30617;SDS011;17384;51.214;9.202;2023-06-10T08:24:28;11.20;;;4.82;;
30617;SDS011;17384;51.214;9.202;2023-06-10T08:26:54;10.35;;;4.45;;
30617;SDS011;17384;51.214;9.202;2023-06-10T08:29:21;6.53;;;4.75;;
30617;SDS011;17384;51.214;9.202;2023-06-10T08:31:46;8.60;;;4.70;;
30617;SDS011;17384;51.214;9.202;2023-06-10T08:34:12;8.55;;;5.15;;
30617;SDS011;17384;51.214;9.202;2023-06-10T08:36:37;10.27;;;4.80;;
30617;SDS011;17384;51.214;9.202;2023-06-10T08:39:03;12.27;;;4.70;;
30617;SDS011;17384;51.214;9.202;2023-06-10T08:41:28;9.82;;;4.82;;
30617;SDS011;17384;51.214;9.202;2023-06-10T08:44:02;8.68;;;5.68;;
30617;SDS011;17384;51.214;9.202;2023-06-10T08:46:33;11.07;;;5.95;;
30617;SDS011;17384;51.214;9.202;2023-06-10T08:49:03;12.15;;;5.53;;
30617;SDS011;17384;51.214;9.202;2023-06-10T08:51:31;8.15;;;4.90;;
30617;SDS011;17384;51.214;9.202;2023-06-10T08:54:09;8.52;;;5.15;;
30617;SDS011;17384;51.214;9.202;2023-06-10T08:56:39;10.82;;;5.20;;
30617;SDS011;17384;51.214;9.202;2023-06-10T08:59:06;10.48;;;5.40;;
30617;SDS011;17384;51.214;9.202;2023-06-10T09:01:32;12.40;;;5.63;;
30617;SDS011;17384;51.214;9.202;2023-06-10T09:03:58;10.05;;;5.10;;
30617;SDS011;17384;51.214;9.202;2023-06-10T09:06:25;12.43;;;6.68;;
30617;SDS011;17384;51.214;9.202;2023-06-10T09:08:51;9.68;;;5.40;;
30617;SDS011;17384;51.214;9.202;2023-06-10T09:11:17;7.05;;;5.18;;
30617;SDS011;17384;51.214;9.202;2023-06-10T09:13:49;7.47;;;5.57;;
30617;SDS011;17384;51.214;9.202;2023-06-10T09:16:15;14.33;;;5.87;;
30617;SDS011;17384;51.214;9.202;2023-06-10T09:18:41;9.93;;;5.72;;
30617;SDS011;17384;51.214;9.202;2023-06-10T09:21:07;9.23;;;6.10;;
30617;SDS011;17384;51.214;9.202;2023-06-10T09:23:33;7.50;;;5.75;;
30617;SDS011;17384;51.214;9.202;2023-06-10T09:26:00;16.33;;;6.22;;
30617;SDS011;17384;51.214;9.202;2023-06-10T09:28:25;11.68;;;5.45;;
30617;SDS011;17384;51.214;9.202;2023-06-10T09:31:01;7.45;;;5.50;;
30617;SDS011;17384;51.214;9.202;2023-06-10T09:33:32;8.85;;;5.80;;
30617;SDS011;17384;51.214;9.202;2023-06-10T09:35:57;11.43;;;5.32;;
30617;SDS011;17384;51.214;9.202;2023-06-10T09:38:29;8.93;;;5.55;;
30617;SDS011;17384;51.214;9.202;2023-06-10T09:40:59;6.80;;;5.07;;
30617;SDS011;17384;51.214;9.202;2023-06-10T09:43:41;7.22;;;5.22;;
30617;SDS011;17384;51.214;9.202;2023-06-10T09:46:18;11.18;;;5.15;;
30617;SDS011;17384;51.214;9.202;2023-06-10T09:48:46;6.82;;;5.30;;
30617;SDS011;17384;51.214;9.202;2023-06-10T09:51:15;8.57;;;5.53;;
30617;SDS011;17384;51.214;9.202;2023-06-10T09:53:53;9.65;;;5.57;;
30617;SDS011;17384;51.214;9.202;2023-06-10T09:56:19;6.53;;;5.10;;
30617;SDS011;17384;51.214;9.202;2023-06-10T09:58:45;10.27;;;5.60;;
30617;SDS011;17384;51.214;9.202;2023-06-10T10:01:12;9.80;;;5.45;;
30617;SDS011;17384;51.214;9.202;2023-06-10T10:03:45;7.97;;;5.53;;
30617;SDS011;17384;51.214;9.202;2023-06-10T10:06:14;12.00;;;5.50;;
30617;SDS011;17384;51.214;9.202;2023-06-10T10:08:40;7.50;;;5.20;;
30617;SDS011;17384;51.214;9.202;2023-06-10T10:11:06;11.25;;;5.30;;
30617;SDS011;17384;51.214;9.202;2023-06-10T10:13:33;7.38;;;4.40;;
30617;SDS011;17384;51.214;9.202;2023-06-10T10:16:00;10.25;;;5.88;;
30617;SDS011;17384;51.214;9.202;2023-06-10T10:18:35;5.93;;;5.20;;
30617;SDS011;17384;51.214;9.202;2023-06-10T10:21:09;10.55;;;5.45;;
30617;SDS011;17384;51.214;9.202;2023-06-10T10:23:44;10.98;;;5.75;;
30617;SDS011;17384;51.214;9.202;2023-06-10T10:26:17;10.38;;;5.40;;
30617;SDS011;17384;51.214;9.202;2023-06-10T10:28:47;7.38;;;5.65;;
30617;SDS011;17384;51.214;9.202;2023-06-10T10:31:28;5.93;;;5.18;;
30617;SDS011;17384;51.214;9.202;2023-06-10T10:34:00;12.32;;;5.82;;
30617;SDS011;17384;51.214;9.202;2023-06-10T10:36:29;11.05;;;5.53;;
30617;SDS011;17384;51.214;9.202;2023-06-10T10:38:56;12.23;;;5.70;;
30617;SDS011;17384;51.214;9.202;2023-06-10T10:41:24;8.35;;;5.13;;
30617;SDS011;17384;51.214;9.202;2023-06-10T10:43:51;10.38;;;5.80;;
30617;SDS011;17384;51.214;9.202;2023-06-10T10:46:17;12.70;;;5.20;;
30617;SDS011;17384;51.214;9.202;2023-06-10T10:48:43;9.70;;;5.50;;
30617;SDS011;17384;51.214;9.202;2023-06-10T10:51:11;9.70;;;6.00;;
30617;SDS011;17384;51.214;9.202;2023-06-10T10:53:37;9.43;;;5.20;;
30617;SDS011;17384;51.214;9.202;2023-06-10T10:56:07;8.80;;;5.72;;
30617;SDS011;17384;51.214;9.202;2023-06-10T10:58:40;7.30;;;5.35;;
30617;SDS011;17384;51.214;9.202;2023-06-10T11:01:12;9.23;;;5.45;;
30617;SDS011;17384;51.214;9.202;2023-06-10T11:03:43;11.55;;;5.60;;
30617;SDS011;17384;51.214;9.202;2023-06-10T11:06:14;12.27;;;5.45;;
30617;SDS011;17384;51.214;9.202;2023-06-10T11:11:24;8.82;;;5.60;;
30617;SDS011;17384;51.214;9.202;2023-06-10T11:14:11;11.68;;;5.63;;
30617;SDS011;17384;51.214;9.202;2023-06-10T11:16:40;7.13;;;4.60;;
30617;SDS011;17384;51.214;9.202;2023-06-10T11:19:07;7.75;;;4.93;;
30617;SDS011;17384;51.214;9.202;2023-06-10T11:21:36;6.70;;;4.80;;
30617;SDS011;17384;51.214;9.202;2023-06-10T11:24:21;8.65;;;5.68;;
30617;SDS011;17384;51.214;9.202;2023-06-10T11:26:46;9.48;;;5.65;;
30617;SDS011;17384;51.214;9.202;2023-06-10T11:29:11;10.40;;;6.03;;
30617;SDS011;17384;51.214;9.202;2023-06-10T11:31:41;7.28;;;4.85;;
30617;SDS011;17384;51.214;9.202;2023-06-10T11:34:08;7.20;;;5.22;;
30617;SDS011;17384;51.214;9.202;2023-06-10T11:36:36;12.68;;;5.38;;
30617;SDS011;17384;51.214;9.202;2023-06-10T11:39:05;6.93;;;4.80;;
30617;SDS011;17384;51.214;9.202;2023-06-10T11:41:32;7.43;;;4.72;;
30617;SDS011;17384;51.214;9.202;2023-06-10T11:44:02;5.30;;;4.80;;
30617;SDS011;17384;51.214;9.202;2023-06-10T11:46:29;10.38;;;5.35;;
30617;SDS011;17384;51.214;9.202;2023-06-10T11:48:55;9.52;;;5.55;;
30617;SDS011;17384;51.214;9.202;2023-06-10T11:51:25;8.48;;;6.10;;
30617;SDS011;17384;51.214;9.202;2023-06-10T11:53:52;6.68;;;5.13;;
30617;SDS011;17384;51.214;9.202;2023-06-10T11:56:21;8.45;;;4.93;;
30617;SDS011;17384;51.214;9.202;2023-06-10T11:58:51;12.93;;;4.75;;
30617;SDS011;17384;51.214;9.202;2023-06-10T12:01:19;12.60;;;5.25;;
30617;SDS011;17384;51.214;9.202;2023-06-10T12:03:47;12.52;;;5.88;;
30617;SDS011;17384;51.214;9.202;2023-06-10T12:06:12;6.53;;;5.03;;
30617;SDS011;17384;51.214;9.202;2023-06-10T12:08:41;7.95;;;5.43;;
30617;SDS011;17384;51.214;9.202;2023-06-10T12:11:07;6.57;;;5.30;;
30617;SDS011;17384;51.214;9.202;2023-06-10T12:13:33;7.22;;;5.20;;
30617;SDS011;17384;51.214;9.202;2023-06-10T12:16:11;9.80;;;5.32;;
30617;SDS011;17384;51.214;9.202;2023-06-10T12:18:36;7.15;;;5.15;;
30617;SDS011;17384;51.214;9.202;2023-06-10T12:21:02;9.82;;;5.50;;
30617;SDS011;17384;51.214;9.202;2023-06-10T12:23:28;9.63;;;4.82;;
30617;SDS011;17384;51.214;9.202;2023-06-10T12:25:54;8.13;;;5.32;;
30617;SDS011;17384;51.214;9.202;2023-06-10T12:28:23;7.20;;;5.10;;
30617;SDS011;17384;51.214;9.202;2023-06-10T12:30:50;7.15;;;5.30;;
30617;SDS011;17384;51.214;9.202;2023-06-10T12:33:19;13.52;;;6.13;;
30617;SDS011;17384;51.214;9.202;2023-06-10T12:35:51;9.07;;;5.50;;
30617;SDS011;17384;51.214;9.202;2023-06-10T12:38:24;8.00;;;6.18;;
30617;SDS011;17384;51.214;9.202;2023-06-10T12:40:53;7.20;;;5.85;;
30617;SDS011;17384;51.214;9.202;2023-06-10T12:43:22;9.88;;;6.32;;
30617;SDS011;17384;51.214;9.202;2023-06-10T12:45:48;11.38;;;6.30;;
30617;SDS011;17384;51.214;9.202;2023-06-10T12:48:18;9.80;;;6.38;;
30617;SDS011;17384;51.214;9.202;2023-06-10T12:50:51;10.25;;;5.47;;
30617;SDS011;17384;51.214;9.202;2023-06-10T12:53:18;9.68;;;6.40;;
30617;SDS011;17384;51.214;9.202;2023-06-10T12:55:45;10.38;;;6.20;;
30617;SDS011;17384;51.214;9.202;2023-06-10T12:58:11;12.43;;;6.60;;
30617;SDS011;17384;51.214;9.202;2023-06-10T13:00:38;7.20;;;5.85;;
30617;SDS011;17384;51.214;9.202;2023-06-10T13:03:04;12.60;;;6.43;;
30617;SDS011;17384;51.214;9.202;2023-06-10T13:05:34;12.98;;;6.15;;
30617;SDS011;17384;51.214;9.202;2023-06-10T13:08:02;9.85;;;6.10;;
30617;SDS011;17384;51.214;9.202;2023-06-10T13:10:28;8.80;;;5.80;;
30617;SDS011;17384;51.214;9.202;2023-06-10T13:12:53;8.38;;;6.57;;
30617;SDS011;17384;51.214;9.202;2023-06-10T13:15:22;9.20;;;6.50;;
30617;SDS011;17384;51.214;9.202;2023-06-10T13:17:47;13.25;;;5.50;;
30617;SDS011;17384;51.214;9.202;2023-06-10T13:20:14;7.70;;;5.80;;
30617;SDS011;17384;51.214;9.202;2023-06-10T13:22:41;8.65;;;5.40;;
30617;SDS011;17384;51.214;9.202;2023-06-10T13:25:07;8.65;;;5.68;;
30617;SDS011;17384;51.214;9.202;2023-06-10T13:27:34;9.52;;;5.75;;
30617;SDS011;17384;51.214;9.202;2023-06-10T13:30:00;6.65;;;5.50;;
30617;SDS011;17384;51.214;9.202;2023-06-10T13:32:26;13.70;;;5.40;;
30617;SDS011;17384;51.214;9.202;2023-06-10T13:34:51;9.30;;;6.18;;
30617;SDS011;17384;51.214;9.202;2023-06-10T13:37:18;9.07;;;5.20;;
30617;SDS011;17384;51.214;9.202;2023-06-10T13:39:44;8.93;;;5.32;;
30617;SDS011;17384;51.214;9.202;2023-06-10T13:42:13;7.95;;;5.43;;
30617;SDS011;17384;51.214;9.202;2023-06-10T13:44:39;5.65;;;4.75;;
30617;SDS011;17384;51.214;9.202;2023-06-10T13:47:04;8.05;;;5.50;;
30617;SDS011;17384;51.214;9.202;2023-06-10T13:49:30;8.10;;;5.07;;
30617;SDS011;17384;51.214;9.202;2023-06-10T13:51:56;8.77;;;5.25;;
30617;SDS011;17384;51.214;9.202;2023-06-10T13:54:22;12.50;;;5.20;;
30617;SDS011;17384;51.214;9.202;2023-06-10T13:56:47;7.57;;;5.25;;
30617;SDS011;17384;51.214;9.202;2023-06-10T13:59:13;6.40;;;4.75;;
30617;SDS011;17384;51.214;9.202;2023-06-10T14:01:38;11.35;;;4.80;;
30617;SDS011;17384;51.214;9.202;2023-06-10T14:04:05;9.63;;;5.10;;
30617;SDS011;17384;51.214;9.202;2023-06-10T14:06:31;6.85;;;4.70;;
30617;SDS011;17384;51.214;9.202;2023-06-10T14:08:58;6.25;;;4.57;;
30617;SDS011;17384;51.214;9.202;2023-06-10T14:11:24;9.18;;;4.95;;
30617;SDS011;17384;51.214;9.202;2023-06-10T14:13:49;7.47;;;4.57;;
30617;SDS011;17384;51.214;9.202;2023-06-10T14:16:15;7.32;;;4.55;;
30617;SDS011;17384;51.214;9.202;2023-06-10T14:18:40;8.52;;;4.65;;
30617;SDS011;17384;51.214;9.202;2023-06-10T14:21:06;5.60;;;4.60;;
30617;SDS011;17384;51.214;9.202;2023-06-10T14:23:31;7.15;;;4.22;;
30617;SDS011;17384;51.214;9.202;2023-06-10T14:25:56;6.40;;;4.20;;
30617;SDS011;17384;51.214;9.202;2023-06-10T14:28:22;5.47;;;4.80;;
30617;SDS011;17384;51.214;9.202;2023-06-10T14:30:49;8.70;;;4.72;;
30617;SDS011;17384;51.214;9.202;2023-06-10T14:33:14;8.18;;;4.35;;
30617;SDS011;17384;51.214;9.202;2023-06-10T14:35:40;8.80;;;4.47;;
30617;SDS011;17384;51.214;9.202;2023-06-10T14:38:05;6.22;;;4.30;;
30617;SDS011;17384;51.214;9.202;2023-06-10T14:40:31;9.05;;;4.40;;